AAY1017 KEYW-KPIE
Flight info
| Callsign | AAY1017 |
|---|---|
| Flight time | 0h 41m |
| Altitude | 18000 |
| Route | BUFTT1 GUFFS FERAL BLFRG3 |
| Aircraft | A319/M-VGDW/C |
Departure
| Time | 2026-04-24 01:52 |
|---|---|
| Airport | Key West International Airport (KEYW) |
Arrival
| Time | 2026-04-24 02:33 |
|---|---|
| Airport | St. Petersburg Clearwater International Airport (KPIE) |
| Time | Latitude | Longitude | Altitude | Speed | Heading |
|---|---|---|---|---|---|
| 2026-04-24 01:31 | 24.55421 | -81.75353 | 14 ft | 0 kts | 154° |
| 2026-04-24 01:44 | 24.55425 | -81.75355 | 14 ft | 3 kts | 154° |
| 2026-04-24 01:44 | 24.55442 | -81.75364 | 14 ft | 3 kts | 154° |
| 2026-04-24 01:44 | 24.55459 | -81.75372 | 15 ft | 3 kts | 168° |
| 2026-04-24 01:44 | 24.55475 | -81.75375 | 18 ft | 1 kts | 168° |
| 2026-04-24 01:46 | 24.55470 | -81.75374 | 18 ft | 2 kts | 168° |
| 2026-04-24 01:47 | 24.55458 | -81.75371 | 15 ft | 0 kts | 168° |
| 2026-04-24 01:47 | 24.55455 | -81.75373 | 16 ft | 0 kts | 191° |
| 2026-04-24 01:48 | 24.55454 | -81.75378 | 16 ft | 2 kts | 234° |
| 2026-04-24 01:48 | 24.55468 | -81.75413 | 15 ft | 7 kts | 298° |
| 2026-04-24 01:48 | 24.55517 | -81.75454 | 15 ft | 9 kts | 326° |
| 2026-04-24 01:48 | 24.55532 | -81.75527 | 16 ft | 15 kts | 270° |
| 2026-04-24 01:49 | 24.55528 | -81.75653 | 15 ft | 17 kts | 268° |
| 2026-04-24 01:49 | 24.55524 | -81.75786 | 14 ft | 18 kts | 268° |
| 2026-04-24 01:49 | 24.55526 | -81.75928 | 11 ft | 19 kts | 269° |
| 2026-04-24 01:49 | 24.55524 | -81.76084 | 8 ft | 21 kts | 269° |
| 2026-04-24 01:50 | 24.55520 | -81.76245 | 8 ft | 21 kts | 270° |
| 2026-04-24 01:50 | 24.55520 | -81.76407 | 7 ft | 21 kts | 270° |
| 2026-04-24 01:50 | 24.55518 | -81.76563 | 8 ft | 19 kts | 268° |
| 2026-04-24 01:50 | 24.55542 | -81.76660 | 9 ft | 12 kts | 327° |
| 2026-04-24 01:51 | 24.55605 | -81.76629 | 9 ft | 11 kts | 71° |
| 2026-04-24 01:51 | 24.55606 | -81.76591 | 9 ft | 4 kts | 90° |
| 2026-04-24 01:51 | 24.55609 | -81.76402 | 7 ft | 65 kts | 89° |
| 2026-04-24 01:51 | 24.55610 | -81.75593 | 48 ft | 137 kts | 92° |
| 2026-04-24 01:52 | 24.55590 | -81.74562 | 834 ft | 134 kts | 93° |
| 2026-04-24 01:52 | 24.55891 | -81.73600 | 1574 ft | 146 kts | 48° |
| 2026-04-24 01:52 | 24.56909 | -81.73180 | 2109 ft | 173 kts | 11° |
| 2026-04-24 01:52 | 24.58199 | -81.73126 | 2469 ft | 197 kts | 8° |
| 2026-04-24 01:53 | 24.59651 | -81.73027 | 2767 ft | 222 kts | 7° |
| 2026-04-24 01:53 | 24.61281 | -81.72895 | 3179 ft | 247 kts | 7° |
| 2026-04-24 01:53 | 24.63067 | -81.72737 | 3758 ft | 265 kts | 6° |
| 2026-04-24 01:53 | 24.64931 | -81.72565 | 4657 ft | 272 kts | 5° |
| 2026-04-24 01:54 | 24.66831 | -81.72383 | 5573 ft | 276 kts | 5° |
| 2026-04-24 01:54 | 24.68762 | -81.72191 | 6487 ft | 281 kts | 4° |
| 2026-04-24 01:54 | 24.70714 | -81.71882 | 7339 ft | 287 kts | 14° |
| 2026-04-24 01:54 | 24.72558 | -81.71007 | 8195 ft | 292 kts | 32° |
| 2026-04-24 01:55 | 24.74126 | -81.69565 | 9058 ft | 297 kts | 47° |
| 2026-04-24 01:55 | 24.75523 | -81.67914 | 9945 ft | 301 kts | 47° |
| 2026-04-24 01:55 | 24.76989 | -81.66195 | 10431 ft | 319 kts | 46° |
| 2026-04-24 01:55 | 24.78567 | -81.64354 | 10705 ft | 342 kts | 46° |
| 2026-04-24 01:56 | 24.80236 | -81.62408 | 11223 ft | 355 kts | 46° |
| 2026-04-24 01:56 | 24.81989 | -81.60474 | 11930 ft | 360 kts | 39° |
| 2026-04-24 01:56 | 24.84051 | -81.58902 | 12679 ft | 362 kts | 27° |
| 2026-04-24 01:56 | 24.86373 | -81.57823 | 13438 ft | 364 kts | 16° |
| 2026-04-24 01:57 | 24.88794 | -81.56964 | 14165 ft | 367 kts | 15° |
| 2026-04-24 01:57 | 24.91238 | -81.56089 | 14819 ft | 371 kts | 15° |
| 2026-04-24 01:57 | 24.93703 | -81.55198 | 15463 ft | 375 kts | 15° |
| 2026-04-24 01:57 | 24.96198 | -81.54295 | 16101 ft | 379 kts | 15° |
| 2026-04-24 01:58 | 24.98713 | -81.53383 | 16738 ft | 383 kts | 15° |
| 2026-04-24 01:58 | 25.01259 | -81.52461 | 17377 ft | 387 kts | 15° |
| 2026-04-24 01:58 | 25.03799 | -81.51541 | 17870 ft | 391 kts | 15° |
| 2026-04-24 01:58 | 25.06388 | -81.50603 | 18002 ft | 394 kts | 15° |
| 2026-04-24 01:59 | 25.09048 | -81.49642 | 18031 ft | 408 kts | 15° |
| 2026-04-24 01:59 | 25.11756 | -81.48664 | 18030 ft | 411 kts | 15° |
| 2026-04-24 01:59 | 25.14475 | -81.47677 | 18033 ft | 412 kts | 15° |
| 2026-04-24 01:59 | 25.17197 | -81.46685 | 18028 ft | 411 kts | 15° |
| 2026-04-24 02:00 | 25.19914 | -81.45696 | 18028 ft | 411 kts | 15° |
| 2026-04-24 02:00 | 25.22632 | -81.44708 | 18028 ft | 411 kts | 15° |
| 2026-04-24 02:00 | 25.25348 | -81.43725 | 18034 ft | 411 kts | 15° |
| 2026-04-24 02:00 | 25.28065 | -81.42739 | 18033 ft | 411 kts | 16° |
| 2026-04-24 02:01 | 25.30780 | -81.41754 | 18029 ft | 411 kts | 16° |
| 2026-04-24 02:01 | 25.33493 | -81.40769 | 18032 ft | 411 kts | 16° |
| 2026-04-24 02:01 | 25.36208 | -81.39782 | 18040 ft | 411 kts | 16° |
| 2026-04-24 02:01 | 25.38921 | -81.38793 | 18038 ft | 411 kts | 16° |
| 2026-04-24 02:02 | 25.41634 | -81.37803 | 18037 ft | 410 kts | 16° |
| 2026-04-24 02:02 | 25.44372 | -81.36937 | 18042 ft | 408 kts | 8° |
| 2026-04-24 02:02 | 25.47184 | -81.36666 | 18037 ft | 404 kts | 356° |
| 2026-04-24 02:02 | 25.49960 | -81.37038 | 18040 ft | 401 kts | 345° |
| 2026-04-24 02:03 | 25.54996 | -81.39490 | 18035 ft | 396 kts | 326° |
| 2026-04-24 02:03 | 25.57335 | -81.41096 | 18039 ft | 396 kts | 326° |
| 2026-04-24 02:03 | 25.59677 | -81.42702 | 18039 ft | 396 kts | 326° |
| 2026-04-24 02:04 | 25.62021 | -81.44310 | 18035 ft | 396 kts | 326° |
| 2026-04-24 02:04 | 25.64367 | -81.45920 | 18033 ft | 397 kts | 326° |
| 2026-04-24 02:04 | 25.66682 | -81.47510 | 18034 ft | 397 kts | 326° |
| 2026-04-24 02:04 | 25.69028 | -81.49122 | 18032 ft | 397 kts | 326° |
| 2026-04-24 02:05 | 25.71376 | -81.50734 | 18037 ft | 397 kts | 326° |
| 2026-04-24 02:05 | 25.73726 | -81.52348 | 18033 ft | 397 kts | 326° |
| 2026-04-24 02:05 | 25.76079 | -81.53965 | 18034 ft | 398 kts | 327° |
| 2026-04-24 02:05 | 25.78431 | -81.55581 | 18037 ft | 398 kts | 326° |
| 2026-04-24 02:06 | 25.80784 | -81.57199 | 18037 ft | 398 kts | 326° |
| 2026-04-24 02:06 | 25.83139 | -81.58820 | 18039 ft | 399 kts | 327° |
| 2026-04-24 02:06 | 25.85499 | -81.60444 | 18045 ft | 399 kts | 327° |
| 2026-04-24 02:06 | 25.87930 | -81.61930 | 18045 ft | 400 kts | 335° |
| 2026-04-24 02:07 | 25.90575 | -81.62923 | 18044 ft | 402 kts | 345° |
| 2026-04-24 02:07 | 25.93317 | -81.63563 | 18047 ft | 403 kts | 347° |
| 2026-04-24 02:07 | 25.96061 | -81.64197 | 18052 ft | 403 kts | 347° |
| 2026-04-24 02:07 | 25.98803 | -81.64834 | 18051 ft | 403 kts | 347° |
| 2026-04-24 02:08 | 26.01546 | -81.65474 | 18053 ft | 403 kts | 347° |
| 2026-04-24 02:08 | 26.04290 | -81.66117 | 18055 ft | 403 kts | 347° |
| 2026-04-24 02:08 | 26.07039 | -81.66758 | 18056 ft | 403 kts | 347° |
| 2026-04-24 02:08 | 26.09788 | -81.67394 | 18057 ft | 403 kts | 347° |
| 2026-04-24 02:09 | 26.12530 | -81.68028 | 18047 ft | 403 kts | 347° |
| 2026-04-24 02:09 | 26.15277 | -81.68665 | 18048 ft | 403 kts | 347° |
| 2026-04-24 02:09 | 26.18022 | -81.69306 | 18049 ft | 403 kts | 347° |
| 2026-04-24 02:09 | 26.20767 | -81.69948 | 18052 ft | 403 kts | 347° |
| 2026-04-24 02:10 | 26.23514 | -81.70591 | 18052 ft | 403 kts | 347° |
| 2026-04-24 02:10 | 26.26258 | -81.71229 | 18053 ft | 403 kts | 347° |
| 2026-04-24 02:10 | 26.29001 | -81.71867 | 18055 ft | 403 kts | 347° |
| 2026-04-24 02:10 | 26.31751 | -81.72510 | 18053 ft | 403 kts | 347° |
| 2026-04-24 02:11 | 26.34493 | -81.73153 | 18052 ft | 403 kts | 347° |
| 2026-04-24 02:11 | 26.37237 | -81.73796 | 18066 ft | 403 kts | 346° |
| 2026-04-24 02:11 | 26.39981 | -81.74439 | 18069 ft | 402 kts | 346° |
| 2026-04-24 02:11 | 26.42690 | -81.75075 | 18072 ft | 402 kts | 346° |
| 2026-04-24 02:12 | 26.45432 | -81.75717 | 18072 ft | 402 kts | 346° |
| 2026-04-24 02:12 | 26.48175 | -81.76360 | 18074 ft | 402 kts | 346° |
| 2026-04-24 02:12 | 26.50913 | -81.76995 | 18069 ft | 403 kts | 348° |
| 2026-04-24 02:12 | 26.53700 | -81.77383 | 18076 ft | 403 kts | 352° |
| 2026-04-24 02:13 | 26.56490 | -81.77710 | 18074 ft | 403 kts | 352° |
| 2026-04-24 02:13 | 26.59280 | -81.78040 | 18071 ft | 403 kts | 352° |
| 2026-04-24 02:13 | 26.61130 | -81.78259 | 18072 ft | 403 kts | 352° |
| 2026-04-24 02:13 | 26.64866 | -81.78699 | 18055 ft | 403 kts | 352° |
| 2026-04-24 02:14 | 26.66712 | -81.78917 | 18055 ft | 403 kts | 352° |
| 2026-04-24 02:14 | 26.69507 | -81.79247 | 18051 ft | 403 kts | 352° |
| 2026-04-24 02:14 | 26.72298 | -81.79576 | 18054 ft | 404 kts | 352° |
| 2026-04-24 02:14 | 26.75091 | -81.79904 | 18052 ft | 403 kts | 352° |
| 2026-04-24 02:15 | 26.77885 | -81.80233 | 18052 ft | 404 kts | 352° |
| 2026-04-24 02:15 | 26.80678 | -81.80562 | 18059 ft | 404 kts | 352° |
| 2026-04-24 02:15 | 26.83475 | -81.80891 | 18058 ft | 404 kts | 352° |
| 2026-04-24 02:15 | 26.86271 | -81.81223 | 18058 ft | 404 kts | 352° |
| 2026-04-24 02:16 | 26.89054 | -81.81554 | 17917 ft | 398 kts | 352° |
| 2026-04-24 02:16 | 26.91736 | -81.81875 | 17658 ft | 388 kts | 352° |
| 2026-04-24 02:16 | 26.94402 | -81.82194 | 17393 ft | 383 kts | 352° |
| 2026-04-24 02:16 | 26.97040 | -81.82508 | 17147 ft | 380 kts | 352° |
| 2026-04-24 02:17 | 26.99664 | -81.82822 | 16895 ft | 378 kts | 352° |
| 2026-04-24 02:17 | 27.02272 | -81.83133 | 16637 ft | 376 kts | 352° |
| 2026-04-24 02:17 | 27.04868 | -81.83457 | 16387 ft | 374 kts | 350° |
| 2026-04-24 02:17 | 27.07384 | -81.84135 | 16139 ft | 370 kts | 339° |
| 2026-04-24 02:18 | 27.09727 | -81.85291 | 15895 ft | 367 kts | 329° |
| 2026-04-24 02:18 | 27.11845 | -81.86860 | 15651 ft | 364 kts | 321° |
| 2026-04-24 02:18 | 27.13864 | -81.88569 | 15411 ft | 363 kts | 321° |
| 2026-04-24 02:18 | 27.15876 | -81.90268 | 15171 ft | 361 kts | 321° |
| 2026-04-24 02:19 | 27.17882 | -81.91962 | 14932 ft | 360 kts | 322° |
| 2026-04-24 02:19 | 27.19877 | -81.93646 | 14696 ft | 358 kts | 322° |
| 2026-04-24 02:19 | 27.21867 | -81.95326 | 14456 ft | 357 kts | 322° |
| 2026-04-24 02:19 | 27.23847 | -81.97002 | 14223 ft | 356 kts | 321° |
| 2026-04-24 02:20 | 27.25818 | -81.98676 | 13986 ft | 354 kts | 321° |
| 2026-04-24 02:20 | 27.27780 | -82.00341 | 13744 ft | 353 kts | 322° |
| 2026-04-24 02:20 | 27.29737 | -82.02000 | 13482 ft | 352 kts | 322° |
| 2026-04-24 02:20 | 27.31687 | -82.03653 | 13222 ft | 351 kts | 322° |
| 2026-04-24 02:21 | 27.33635 | -82.05308 | 12966 ft | 350 kts | 322° |
| 2026-04-24 02:21 | 27.35548 | -82.06930 | 12719 ft | 349 kts | 322° |
| 2026-04-24 02:21 | 27.37477 | -82.08577 | 12458 ft | 347 kts | 321° |
| 2026-04-24 02:21 | 27.39365 | -82.10270 | 12211 ft | 346 kts | 320° |
| 2026-04-24 02:22 | 27.41216 | -82.11995 | 11961 ft | 345 kts | 319° |
| 2026-04-24 02:22 | 27.43053 | -82.13732 | 11713 ft | 344 kts | 319° |
| 2026-04-24 02:22 | 27.44863 | -82.15483 | 11463 ft | 342 kts | 317° |
| 2026-04-24 02:22 | 27.46604 | -82.17310 | 11221 ft | 341 kts | 315° |
| 2026-04-24 02:23 | 27.48297 | -82.19179 | 10987 ft | 340 kts | 314° |
| 2026-04-24 02:23 | 27.49974 | -82.21062 | 10742 ft | 339 kts | 314° |
| 2026-04-24 02:23 | 27.51644 | -82.22933 | 10502 ft | 338 kts | 314° |
| 2026-04-24 02:23 | 27.53276 | -82.24798 | 10270 ft | 328 kts | 310° |
| 2026-04-24 02:24 | 27.54471 | -82.26921 | 10033 ft | 314 kts | 293° |
| 2026-04-24 02:24 | 27.55286 | -82.29121 | 9859 ft | 294 kts | 293° |
| 2026-04-24 02:24 | 27.56121 | -82.31195 | 9737 ft | 289 kts | 294° |
| 2026-04-24 02:24 | 27.56971 | -82.33231 | 9604 ft | 286 kts | 295° |
| 2026-04-24 02:25 | 27.57821 | -82.35258 | 9473 ft | 286 kts | 294° |
| 2026-04-24 02:25 | 27.58670 | -82.37294 | 9071 ft | 289 kts | 294° |
| 2026-04-24 02:25 | 27.59508 | -82.39321 | 8678 ft | 287 kts | 294° |
| 2026-04-24 02:25 | 27.60353 | -82.41382 | 8127 ft | 289 kts | 294° |
| 2026-04-24 02:26 | 27.61184 | -82.43424 | 7529 ft | 285 kts | 294° |
| 2026-04-24 02:26 | 27.62009 | -82.45460 | 6924 ft | 287 kts | 294° |
| 2026-04-24 02:26 | 27.62835 | -82.47503 | 6510 ft | 286 kts | 294° |
| 2026-04-24 02:26 | 27.63661 | -82.49541 | 6078 ft | 285 kts | 294° |
| 2026-04-24 02:27 | 27.64478 | -82.51557 | 5489 ft | 282 kts | 294° |
| 2026-04-24 02:27 | 27.65302 | -82.53591 | 4842 ft | 289 kts | 294° |
| 2026-04-24 02:27 | 27.66127 | -82.55627 | 4582 ft | 280 kts | 294° |
| 2026-04-24 02:27 | 27.66920 | -82.57584 | 4452 ft | 268 kts | 294° |
| 2026-04-24 02:28 | 27.67678 | -82.59455 | 4331 ft | 255 kts | 294° |
| 2026-04-24 02:28 | 27.68395 | -82.61231 | 4213 ft | 243 kts | 293° |
| 2026-04-24 02:28 | 27.69078 | -82.62923 | 4118 ft | 232 kts | 294° |
| 2026-04-24 02:28 | 27.69882 | -82.64452 | 3912 ft | 226 kts | 314° |
| 2026-04-24 02:29 | 27.71191 | -82.65391 | 3640 ft | 225 kts | 344° |
| 2026-04-24 02:29 | 27.72720 | -82.65709 | 3363 ft | 223 kts | 353° |
| 2026-04-24 02:29 | 27.74254 | -82.65965 | 3075 ft | 223 kts | 353° |
| 2026-04-24 02:29 | 27.75782 | -82.66225 | 2795 ft | 222 kts | 353° |
| 2026-04-24 02:30 | 27.77299 | -82.66485 | 2476 ft | 217 kts | 353° |
| 2026-04-24 02:30 | 27.78748 | -82.66735 | 2206 ft | 204 kts | 353° |
| 2026-04-24 02:30 | 27.80110 | -82.66969 | 1950 ft | 192 kts | 353° |
| 2026-04-24 02:30 | 27.81382 | -82.67188 | 1705 ft | 179 kts | 354° |
| 2026-04-24 02:31 | 27.82577 | -82.67393 | 1473 ft | 168 kts | 353° |
| 2026-04-24 02:31 | 27.83697 | -82.67585 | 1274 ft | 158 kts | 354° |
| 2026-04-24 02:31 | 27.84755 | -82.67767 | 1077 ft | 150 kts | 354° |
| 2026-04-24 02:31 | 27.85775 | -82.67942 | 888 ft | 147 kts | 354° |
| 2026-04-24 02:32 | 27.86771 | -82.68113 | 697 ft | 143 kts | 352° |
| 2026-04-24 02:32 | 27.87750 | -82.68281 | 509 ft | 140 kts | 353° |
| 2026-04-24 02:32 | 27.88710 | -82.68446 | 323 ft | 139 kts | 352° |
| 2026-04-24 02:32 | 27.89660 | -82.68609 | 134 ft | 138 kts | 352° |
| 2026-04-24 02:33 | 27.90578 | -82.68766 | 27 ft | 126 kts | 352° |
| 2026-04-24 02:33 | 27.91301 | -82.68889 | 20 ft | 81 kts | 351° |
| 2026-04-24 02:33 | 27.91544 | -82.68943 | 21 ft | 18 kts | 319° |
| 2026-04-24 02:33 | 27.91547 | -82.69052 | 25 ft | 11 kts | 255° |
| 2026-04-24 02:34 | 27.91484 | -82.69079 | 24 ft | 12 kts | 172° |
| 2026-04-24 02:34 | 27.91390 | -82.69066 | 24 ft | 15 kts | 173° |
| 2026-04-24 02:34 | 27.91271 | -82.69047 | 26 ft | 19 kts | 169° |
| 2026-04-24 02:34 | 27.91122 | -82.69013 | 24 ft | 23 kts | 170° |
| 2026-04-24 02:35 | 27.90962 | -82.68988 | 24 ft | 23 kts | 174° |
| 2026-04-24 02:35 | 27.90847 | -82.68982 | 25 ft | 8 kts | 229° |
| 2026-04-24 02:35 | 27.90843 | -82.69001 | 24 ft | 3 kts | 254° |
| 2026-04-24 02:35 | 27.90834 | -82.69048 | 24 ft | 9 kts | 247° |
| 2026-04-24 02:36 | 27.90786 | -82.69065 | 24 ft | 4 kts | 178° |
| 2026-04-24 02:36 | 27.90762 | -82.69064 | 24 ft | 0 kts | 178° |
| 2026-04-24 02:36 | 27.90761 | -82.69064 | 24 ft | 0 kts | 178° |